Clarendon, Texas
Current Conditions -  °F | °C
As of 6:15 AM on Saturday 20 Dec 2014 (Local Time) from KPPA Reporting Station
Overcast Overcast  
Wind Chill: 29°   Ceiling: 800
Heat Index: 36°   Visibility: 7mi
Dew Point: 34°   Wind: 9mph
Humidity: 92%   Direction: 230°SW
Pressure: 30.11"   Gusts: NA
Location:  34.94°N, 100.89°W
Report Text: KPPA 201215Z AUTO 23008KT 7SM OVC008 02/01 A3011 RMK AO2 T00220010 PNO
Loading
Personal Weather Stations






























Interactive Weather Map New forecast layout! Learn more

10-Day Weather Forecast

Advertisements
Track Severe Weather on mobile